Time;durP1;ratioP1;P1;durP2;ratioP2;P2;SDS_P1;SDS_P2;PMS_P1;PMS_P2;Temp;Humidity;BMP_temperature;BMP_pressure;BME280_temperature;BME280_humidity;BME280_pressure;Samples;Min_cycle;Max_cycle;Signal;HPM_P1;HPM_P2
2024/01/15 00:00:43;;;;;;;6.72;2.10;;;;;;;;;;6310565;22;20041;-81
2024/01/15 00:03:09;;;;;;;9.77;2.83;;;;;;;;;;6310716;22;20025;-82
2024/01/15 00:05:36;;;;;;;9.80;3.00;;;;;;;;;;6283208;22;20015;-82
2024/01/15 00:08:02;;;;;;;8.80;2.38;;;;;;;;;;6311164;22;20019;-82
2024/01/15 00:10:28;;;;;;;11.45;2.30;;;;;;;;;;6283722;22;20347;-82
2024/01/15 00:12:54;;;;;;;13.95;2.97;;;;;;;;;;6281926;22;20026;-82
2024/01/15 00:15:20;;;;;;;13.20;3.03;;;;;;;;;;6284537;22;20023;-83
2024/01/15 00:17:46;;;;;;;12.82;2.42;;;;;;;;;;6283877;22;20165;-83
2024/01/15 00:20:12;;;;;;;10.38;2.45;;;;;;;;;;6284087;22;20026;-83
2024/01/15 00:22:38;;;;;;;12.80;3.50;;;;;;;;;;6284132;22;20054;-83
2024/01/15 00:25:05;;;;;;;13.95;3.65;;;;;;;;;;6283509;22;20440;-82
2024/01/15 00:27:31;;;;;;;13.63;3.67;;;;;;;;;;6283468;22;20313;-83
2024/01/15 00:29:57;;;;;;;8.85;2.58;;;;;;;;;;6283115;22;20431;-82
2024/01/15 00:32:23;;;;;;;8.85;2.20;;;;;;;;;;6281737;22;20016;-82
2024/01/15 00:34:50;;;;;;;8.50;2.15;;;;;;;;;;6282472;22;20015;-82
2024/01/15 00:37:16;;;;;;;11.73;2.13;;;;;;;;;;6257620;22;20023;-82
2024/01/15 00:39:42;;;;;;;6.43;1.88;;;;;;;;;;6281655;22;20051;-82
2024/01/15 00:42:08;;;;;;;6.93;2.60;;;;;;;;;;6282480;22;20023;-82
2024/01/15 00:44:34;;;;;;;9.80;2.40;;;;;;;;;;6282759;22;20090;-82
2024/01/15 00:47:01;;;;;;;9.55;2.65;;;;;;;;;;6282760;22;20090;-82
2024/01/15 00:49:27;;;;;;;13.15;2.97;;;;;;;;;;6282760;22;20023;-82
2024/01/15 00:51:53;;;;;;;7.50;2.63;;;;;;;;;;6310807;22;20011;-82
2024/01/15 00:54:19;;;;;;;4.97;1.80;;;;;;;;;;6281921;22;20019;-82
2024/01/15 00:56:46;;;;;;;7.45;2.53;;;;;;;;;;6282716;22;20067;-82
2024/01/15 00:59:14;;;;;;;6.63;2.20;;;;;;;;;;6282955;22;20015;-82
2024/01/15 01:01:42;;;;;;;5.07;1.90;;;;;;;;;;6282627;22;20012;-82
2024/01/15 01:04:09;;;;;;;5.75;1.60;;;;;;;;;;6282507;22;20027;-82
2024/01/15 01:06:35;;;;;;;3.53;1.30;;;;;;;;;;6310480;22;20057;-82
2024/01/15 01:09:01;;;;;;;3.58;1.80;;;;;;;;;;6310102;22;20019;-82
2024/01/15 01:11:27;;;;;;;4.05;1.38;;;;;;;;;;6282865;22;20019;-82
2024/01/15 01:13:53;;;;;;;4.68;1.80;;;;;;;;;;6282661;22;20019;-82
2024/01/15 01:16:19;;;;;;;7.43;2.33;;;;;;;;;;6310106;22;20019;-82
2024/01/15 01:18:45;;;;;;;7.55;2.05;;;;;;;;;;6256202;22;20073;-82
2024/01/15 01:21:11;;;;;;;8.73;1.98;;;;;;;;;;6309932;22;20023;-82
2024/01/15 01:23:37;;;;;;;6.70;2.05;;;;;;;;;;6307073;22;20019;-82
2024/01/15 01:26:03;;;;;;;7.22;2.45;;;;;;;;;;6307084;22;20368;-82
2024/01/15 01:28:29;;;;;;;7.45;2.45;;;;;;;;;;6280138;22;20015;-82
2024/01/15 01:30:55;;;;;;;16.42;2.85;;;;;;;;;;6307381;22;20015;-82
2024/01/15 01:33:21;;;;;;;13.10;2.80;;;;;;;;;;6307633;22;20012;-82
2024/01/15 01:35:47;;;;;;;14.18;4.07;;;;;;;;;;6309188;22;20023;-82
2024/01/15 01:38:13;;;;;;;6.32;2.20;;;;;;;;;;6309466;22;20120;-82
2024/01/15 01:40:40;;;;;;;8.38;2.95;;;;;;;;;;6310237;22;20023;-82
2024/01/15 01:43:06;;;;;;;15.93;4.25;;;;;;;;;;6310350;22;20069;-82
2024/01/15 01:45:32;;;;;;;12.27;3.45;;;;;;;;;;6310702;22;20106;-82
2024/01/15 01:47:58;;;;;;;20.75;4.07;;;;;;;;;;6309882;22;20467;-82
2024/01/15 01:50:24;;;;;;;16.08;3.97;;;;;;;;;;6311013;22;20137;-82
2024/01/15 01:52:51;;;;;;;16.42;3.67;;;;;;;;;;6281614;22;20018;-82
2024/01/15 01:55:17;;;;;;;12.40;3.10;;;;;;;;;;6281583;22;20023;-81
2024/01/15 01:57:43;;;;;;;13.38;2.80;;;;;;;;;;6309319;22;20367;-82
2024/01/15 02:00:09;;;;;;;14.13;3.67;;;;;;;;;;6308968;22;20094;-82
2024/01/15 02:02:35;;;;;;;11.85;2.78;;;;;;;;;;6281670;22;20023;-82
2024/01/15 02:05:03;;;;;;;10.48;2.78;;;;;;;;;;6309720;22;20344;-82
2024/01/15 02:07:29;;;;;;;10.70;2.88;;;;;;;;;;6309533;22;20026;-81
2024/01/15 02:09:55;;;;;;;7.28;2.03;;;;;;;;;;6282490;22;20015;-81
2024/01/15 02:12:21;;;;;;;10.65;2.38;;;;;;;;;;6310410;22;20065;-81
2024/01/15 02:14:47;;;;;;;7.65;2.35;;;;;;;;;;6309739;22;20027;-81
2024/01/15 02:17:13;;;;;;;9.20;3.10;;;;;;;;;;6309088;22;20023;-81
2024/01/15 02:19:40;;;;;;;8.48;2.30;;;;;;;;;;6282285;22;20080;-81
2024/01/15 02:22:06;;;;;;;16.63;3.47;;;;;;;;;;6282271;22;20069;-82
2024/01/15 02:24:32;;;;;;;12.18;3.28;;;;;;;;;;6310089;22;20023;-82
2024/01/15 02:26:58;;;;;;;8.25;2.92;;;;;;;;;;6256852;22;20023;-81
2024/01/15 02:29:24;;;;;;;14.50;3.45;;;;;;;;;;6309795;22;20094;-81
2024/01/15 02:31:50;;;;;;;10.93;3.30;;;;;;;;;;6309687;22;20383;-81
2024/01/15 02:34:17;;;;;;;11.85;2.72;;;;;;;;;;6309905;22;20046;-81
2024/01/15 02:36:43;;;;;;;13.07;3.38;;;;;;;;;;6309936;22;20022;-82
2024/01/15 02:39:09;;;;;;;9.48;3.15;;;;;;;;;;6309064;22;20015;-82
2024/01/15 02:41:35;;;;;;;12.00;2.38;;;;;;;;;;6280965;22;20012;-82
2024/01/15 02:44:01;;;;;;;9.60;3.05;;;;;;;;;;6309159;22;20018;-81
2024/01/15 02:46:27;;;;;;;9.85;2.70;;;;;;;;;;6282097;22;20523;-81
2024/01/15 02:48:53;;;;;;;7.75;2.92;;;;;;;;;;6310149;22;20015;-81
2024/01/15 02:51:19;;;;;;;6.35;2.72;;;;;;;;;;6309777;22;20023;-81
2024/01/15 02:53:45;;;;;;;9.82;2.95;;;;;;;;;;6282265;22;20091;-81
2024/01/15 02:56:11;;;;;;;11.27;3.10;;;;;;;;;;6282415;22;20017;-81
2024/01/15 02:58:37;;;;;;;13.88;3.95;;;;;;;;;;6255305;22;20050;-81
2024/01/15 03:01:03;;;;;;;9.00;3.30;;;;;;;;;;6281889;22;20015;-81
2024/01/15 03:03:29;;;;;;;7.05;2.08;;;;;;;;;;6309022;22;20023;-81
2024/01/15 03:05:55;;;;;;;10.52;3.08;;;;;;;;;;6309812;22;20166;-81
2024/01/15 03:08:22;;;;;;;11.23;3.28;;;;;;;;;;6310611;22;20037;-81
2024/01/15 03:10:48;;;;;;;12.52;2.88;;;;;;;;;;6310066;22;20019;-81
2024/01/15 03:13:14;;;;;;;8.55;2.30;;;;;;;;;;6310317;22;20088;-81
2024/01/15 03:15:40;;;;;;;5.88;1.80;;;;;;;;;;6310801;22;20336;-81
2024/01/15 03:18:06;;;;;;;2.92;1.58;;;;;;;;;;6309962;22;20488;-81
2024/01/15 03:20:33;;;;;;;5.63;1.60;;;;;;;;;;6310270;22;20023;-81
2024/01/15 03:22:59;;;;;;;5.30;1.98;;;;;;;;;;6309109;22;20455;-80
2024/01/15 03:25:25;;;;;;;11.27;2.38;;;;;;;;;;6310852;22;20019;-81
2024/01/15 03:27:51;;;;;;;11.85;3.03;;;;;;;;;;6309893;22;20015;-81
2024/01/15 03:30:17;;;;;;;7.40;2.38;;;;;;;;;;6310589;22;20022;-81
2024/01/15 03:32:43;;;;;;;12.25;2.40;;;;;;;;;;6310139;22;20021;-80
2024/01/15 03:35:09;;;;;;;8.15;2.38;;;;;;;;;;6310235;22;20019;-81
2024/01/15 03:37:35;;;;;;;13.80;2.97;;;;;;;;;;6283008;22;20094;-80
2024/01/15 03:40:02;;;;;;;14.18;2.90;;;;;;;;;;6282888;22;20058;-81
2024/01/15 03:42:28;;;;;;;14.00;2.97;;;;;;;;;;6310416;22;20015;-81
2024/01/15 03:44:54;;;;;;;8.73;2.33;;;;;;;;;;6283744;22;20015;-81
2024/01/15 03:47:20;;;;;;;7.03;2.92;;;;;;;;;;6311218;22;20098;-82
2024/01/15 03:49:46;;;;;;;5.57;2.33;;;;;;;;;;6283721;22;20019;-82
2024/01/15 03:52:12;;;;;;;11.60;2.58;;;;;;;;;;6283242;22;20011;-82
2024/01/15 03:54:38;;;;;;;13.55;2.92;;;;;;;;;;6283914;22;20030;-82
2024/01/15 03:57:04;;;;;;;6.53;1.90;;;;;;;;;;6283187;22;20016;-83
2024/01/15 03:59:30;;;;;;;2.72;1.52;;;;;;;;;;6310854;22;20084;-82
2024/01/15 04:01:56;;;;;;;4.13;1.40;;;;;;;;;;6310656;22;20015;-82
2024/01/15 04:04:22;;;;;;;7.55;2.30;;;;;;;;;;6309730;22;20451;-82
2024/01/15 04:06:49;;;;;;;2.70;1.48;;;;;;;;;;6283470;22;20019;-82
2024/01/15 04:09:15;;;;;;;6.65;2.22;;;;;;;;;;6310517;22;20157;-82
2024/01/15 04:11:41;;;;;;;5.68;1.70;;;;;;;;;;6310403;22;20026;-82
2024/01/15 04:14:07;;;;;;;4.18;1.80;;;;;;;;;;6282877;22;20118;-82
2024/01/15 04:16:33;;;;;;;9.35;2.03;;;;;;;;;;6311006;22;20460;-82
2024/01/15 04:18:59;;;;;;;9.23;2.20;;;;;;;;;;6283686;22;20027;-82
2024/01/15 04:21:25;;;;;;;6.50;2.38;;;;;;;;;;6283889;22;20026;-82
2024/01/15 04:23:51;;;;;;;10.35;2.13;;;;;;;;;;6310110;22;20018;-82
2024/01/15 04:26:17;;;;;;;12.15;2.33;;;;;;;;;;6283077;22;20055;-82
2024/01/15 04:28:43;;;;;;;6.15;1.80;;;;;;;;;;6310673;22;20328;-82
2024/01/15 04:31:09;;;;;;;8.13;2.10;;;;;;;;;;6310678;22;20084;-82
2024/01/15 04:33:35;;;;;;;10.57;2.22;;;;;;;;;;6309941;22;20452;-82
2024/01/15 04:36:05;;;;;;;13.57;2.90;;;;;;;;;;6257456;22;20076;-82
2024/01/15 04:38:32;;;;;;;12.13;2.83;;;;;;;;;;6257306;22;20486;-82
2024/01/15 04:40:58;;;;;;;8.65;2.47;;;;;;;;;;6310911;22;20019;-82
2024/01/15 04:43:24;;;;;;;11.55;2.47;;;;;;;;;;6258010;22;20094;-82
2024/01/15 04:45:50;;;;;;;11.75;2.97;;;;;;;;;;6310414;22;20023;-82
2024/01/15 04:48:16;;;;;;;10.27;2.97;;;;;;;;;;6282431;22;20022;-82
2024/01/15 04:50:42;;;;;;;6.18;2.28;;;;;;;;;;6282309;22;20022;-82
2024/01/15 04:53:08;;;;;;;8.15;3.10;;;;;;;;;;6310026;22;20011;-82
2024/01/15 04:55:34;;;;;;;20.85;3.47;;;;;;;;;;6311381;22;20019;-82
2024/01/15 04:58:00;;;;;;;17.60;4.20;;;;;;;;;;6282826;22;20043;-82
2024/01/15 05:00:26;;;;;;;12.52;3.00;;;;;;;;;;6282848;22;20020;-82
2024/01/15 05:02:52;;;;;;;11.50;2.95;;;;;;;;;;6256596;22;20022;-82
2024/01/15 05:05:18;;;;;;;10.13;2.35;;;;;;;;;;6256911;22;20019;-82
2024/01/15 05:07:44;;;;;;;12.80;3.03;;;;;;;;;;6282605;22;20067;-82
2024/01/15 05:10:10;;;;;;;16.70;3.85;;;;;;;;;;6311044;22;20019;-83
2024/01/15 05:12:36;;;;;;;10.43;2.92;;;;;;;;;;6283998;22;20026;-82
2024/01/15 05:15:03;;;;;;;13.10;2.58;;;;;;;;;;6312813;22;20025;-82
2024/01/15 05:17:29;;;;;;;10.15;2.90;;;;;;;;;;6311754;22;20366;-82
2024/01/15 05:19:55;;;;;;;8.57;2.55;;;;;;;;;;6284535;22;20019;-82
2024/01/15 05:22:21;;;;;;;15.30;3.33;;;;;;;;;;6311777;22;20023;-82
2024/01/15 05:24:47;;;;;;;9.43;2.65;;;;;;;;;;6284142;22;20030;-82
2024/01/15 05:27:13;;;;;;;10.63;2.80;;;;;;;;;;6312834;22;20050;-82
2024/01/15 05:29:39;;;;;;;11.93;4.15;;;;;;;;;;6284515;22;20023;-82
2024/01/15 05:32:05;;;;;;;12.57;2.80;;;;;;;;;;6312494;22;20016;-82
2024/01/15 05:34:31;;;;;;;18.88;3.13;;;;;;;;;;6259076;22;20058;-82
2024/01/15 05:36:58;;;;;;;12.23;3.20;;;;;;;;;;6284209;22;20027;-82
2024/01/15 05:39:24;;;;;;;20.48;3.83;;;;;;;;;;6284987;22;20011;-82
2024/01/15 05:41:50;;;;;;;14.00;3.42;;;;;;;;;;6284583;22;20077;-82
2024/01/15 05:44:16;;;;;;;14.38;2.78;;;;;;;;;;6283680;22;20015;-82
2024/01/15 05:46:42;;;;;;;18.50;3.65;;;;;;;;;;6283582;22;20019;-82
2024/01/15 05:49:08;;;;;;;18.02;3.33;;;;;;;;;;6284002;22;20367;-82
2024/01/15 05:51:34;;;;;;;16.38;3.65;;;;;;;;;;6283907;22;20050;-82
2024/01/15 05:54:00;;;;;;;14.77;3.30;;;;;;;;;;6310959;22;20023;-82
2024/01/15 05:56:26;;;;;;;18.67;4.32;;;;;;;;;;6312046;22;20023;-82
2024/01/15 05:58:52;;;;;;;15.82;3.40;;;;;;;;;;6284141;22;20026;-83
2024/01/15 06:01:18;;;;;;;9.27;2.50;;;;;;;;;;6311653;22;20030;-83
2024/01/15 06:03:44;;;;;;;6.07;2.53;;;;;;;;;;6282982;22;20348;-82
2024/01/15 06:06:10;;;;;;;6.97;2.20;;;;;;;;;;6283597;22;20015;-82
2024/01/15 06:08:36;;;;;;;12.00;2.90;;;;;;;;;;6310922;22;20019;-82
2024/01/15 06:11:03;;;;;;;6.13;2.22;;;;;;;;;;6258706;22;20060;-82
2024/01/15 06:13:29;;;;;;;9.43;2.10;;;;;;;;;;6284555;22;20050;-82
2024/01/15 06:15:55;;;;;;;7.47;2.20;;;;;;;;;;6283761;22;20015;-83
2024/01/15 06:18:21;;;;;;;8.40;1.70;;;;;;;;;;6283734;22;20027;-83
2024/01/15 06:20:47;;;;;;;7.35;1.60;;;;;;;;;;6283897;22;20019;-83
2024/01/15 06:23:13;;;;;;;8.35;2.20;;;;;;;;;;6282921;22;20022;-82
2024/01/15 06:25:39;;;;;;;4.35;2.13;;;;;;;;;;6283273;22;20112;-82
2024/01/15 06:28:05;;;;;;;4.80;1.30;;;;;;;;;;6284105;22;20025;-82
2024/01/15 06:30:31;;;;;;;5.50;1.63;;;;;;;;;;6312112;22;20018;-82
2024/01/15 06:32:57;;;;;;;6.97;1.88;;;;;;;;;;6310912;22;20448;-82
2024/01/15 06:35:23;;;;;;;7.43;1.90;;;;;;;;;;6311516;22;20452;-83
2024/01/15 06:37:49;;;;;;;6.47;2.33;;;;;;;;;;6283663;22;20023;-83
2024/01/15 06:40:15;;;;;;;9.40;2.28;;;;;;;;;;6283036;22;20020;-82
2024/01/15 06:42:41;;;;;;;8.70;2.30;;;;;;;;;;6283233;22;20073;-83
2024/01/15 06:45:08;;;;;;;9.38;2.50;;;;;;;;;;6284210;22;20129;-82
2024/01/15 06:47:34;;;;;;;6.18;2.15;;;;;;;;;;6310579;22;20015;-83
2024/01/15 06:50:00;;;;;;;10.32;2.60;;;;;;;;;;6310120;22;20015;-82
2024/01/15 06:52:26;;;;;;;8.60;2.35;;;;;;;;;;6281491;22;20027;-82
2024/01/15 06:54:56;;;;;;;11.57;3.47;;;;;;;;;;6280726;22;20118;-85
2024/01/15 06:57:23;;;;;;;7.55;2.03;;;;;;;;;;6256439;22;20017;-82
2024/01/15 06:59:49;;;;;;;3.80;1.90;;;;;;;;;;6256909;22;20046;-82
2024/01/15 07:02:15;;;;;;;3.60;1.50;;;;;;;;;;6309467;22;20019;-82
2024/01/15 07:04:41;;;;;;;5.38;1.83;;;;;;;;;;6309962;22;20022;-81
2024/01/15 07:07:07;;;;;;;6.75;1.70;;;;;;;;;;6281789;22;20019;-82
2024/01/15 07:09:34;;;;;;;7.78;1.98;;;;;;;;;;6309325;22;20012;-82
2024/01/15 07:12:00;;;;;;;7.28;2.08;;;;;;;;;;6279720;22;20015;-82
2024/01/15 07:14:26;;;;;;;7.38;2.13;;;;;;;;;;6308266;22;20011;-82
2024/01/15 07:16:52;;;;;;;7.80;2.20;;;;;;;;;;6307467;22;20087;-82
2024/01/15 07:19:18;;;;;;;10.27;2.38;;;;;;;;;;6279587;22;20027;-82
2024/01/15 07:21:44;;;;;;;8.82;2.58;;;;;;;;;;6280237;22;20015;-82
2024/01/15 07:24:10;;;;;;;5.03;2.22;;;;;;;;;;6308090;22;20086;-82
2024/01/15 07:26:36;;;;;;;8.70;1.90;;;;;;;;;;6281619;22;20325;-82
2024/01/15 07:29:03;;;;;;;7.45;1.85;;;;;;;;;;6308182;22;20023;-82
2024/01/15 07:31:29;;;;;;;8.85;2.45;;;;;;;;;;6282046;22;20020;-82
2024/01/15 07:33:55;;;;;;;11.13;1.92;;;;;;;;;;6280953;22;20055;-82
2024/01/15 07:36:21;;;;;;;7.40;2.05;;;;;;;;;;6280550;22;20045;-82
2024/01/15 07:38:47;;;;;;;6.68;1.67;;;;;;;;;;6281756;22;20068;-82
2024/01/15 07:41:14;;;;;;;7.53;2.15;;;;;;;;;;6254472;22;20097;-81
2024/01/15 07:43:40;;;;;;;7.82;2.38;;;;;;;;;;6279882;22;20019;-81
2024/01/15 07:46:07;;;;;;;6.82;2.58;;;;;;;;;;6278364;22;20080;-82
2024/01/15 07:48:33;;;;;;;4.13;2.05;;;;;;;;;;6279625;22;20026;-82
2024/01/15 07:50:59;;;;;;;8.18;2.05;;;;;;;;;;6306933;22;20038;-82
2024/01/15 07:53:25;;;;;;;4.10;2.08;;;;;;;;;;6279113;22;20019;-81
2024/01/15 07:55:51;;;;;;;5.90;1.90;;;;;;;;;;6279375;22;20034;-81
2024/01/15 07:58:17;;;;;;;9.88;1.95;;;;;;;;;;6278589;22;20094;-81
2024/01/15 08:00:44;;;;;;;9.27;1.73;;;;;;;;;;6308678;22;20029;-82
2024/01/15 08:03:10;;;;;;;6.28;1.80;;;;;;;;;;6281067;22;20026;-81
2024/01/15 08:05:37;;;;;;;13.20;2.42;;;;;;;;;;6308784;22;20011;-81
2024/01/15 08:08:03;;;;;;;7.65;1.77;;;;;;;;;;6282229;22;20015;-81
2024/01/15 08:10:29;;;;;;;5.07;1.70;;;;;;;;;;6280340;22;20023;-82
2024/01/15 08:12:55;;;;;;;4.45;1.75;;;;;;;;;;6279689;22;20015;-81
2024/01/15 08:15:21;;;;;;;2.05;1.05;;;;;;;;;;6254711;22;20023;-82
2024/01/15 08:17:47;;;;;;;6.78;1.73;;;;;;;;;;6307557;22;20104;-82
2024/01/15 08:20:14;;;;;;;3.42;1.50;;;;;;;;;;6280481;22;20122;-82
2024/01/15 08:22:40;;;;;;;5.72;1.75;;;;;;;;;;6307945;22;20011;-82
2024/01/15 08:25:09;;;;;;;24.05;2.88;;;;;;;;;;6278331;22;20095;-84
2024/01/15 08:27:38;;;;;;;8.32;1.80;;;;;;;;;;6278894;22;20019;-85
2024/01/15 08:30:07;;;;;;;10.93;2.15;;;;;;;;;;6279465;22;20085;-86
2024/01/15 08:32:36;;;;;;;5.50;1.77;;;;;;;;;;6278749;22;20022;-85
2024/01/15 08:35:04;;;;;;;7.32;2.35;;;;;;;;;;6279001;22;20015;-85
2024/01/15 08:37:32;;;;;;;10.65;2.70;;;;;;;;;;6279126;22;20020;-84
2024/01/15 08:40:27;;;;;;;4.45;1.83;;;;;;;;;;6278676;22;20127;-85
2024/01/15 08:43:27;;;;;;;7.30;2.25;;;;;;;;;;6128109;23;20013;-84
2024/01/15 08:46:14;;;;;;;6.63;1.83;;;;;;;;;;6285197;22;20102;-85
2024/01/15 08:48:40;;;;;;;7.32;1.80;;;;;;;;;;6258297;22;20053;-84
2024/01/15 08:51:07;;;;;;;13.77;2.33;;;;;;;;;;6283829;22;20469;-83
2024/01/15 08:53:34;;;;;;;7.53;1.90;;;;;;;;;;6259330;22;20070;-82
2024/01/15 08:56:00;;;;;;;5.22;1.60;;;;;;;;;;6285200;22;20018;-83
2024/01/15 08:58:26;;;;;;;9.25;2.63;;;;;;;;;;6259428;22;20011;-83
2024/01/15 09:00:54;;;;;;;7.00;2.45;;;;;;;;;;6284194;22;20087;-85
2024/01/15 09:03:20;;;;;;;13.00;2.70;;;;;;;;;;6260109;22;20061;-83
2024/01/15 09:05:48;;;;;;;10.93;2.50;;;;;;;;;;6313065;22;20019;-82
2024/01/15 09:08:14;;;;;;;11.23;2.67;;;;;;;;;;6258978;22;20347;-83
2024/01/15 09:10:40;;;;;;;8.05;1.92;;;;;;;;;;6312059;22;20007;-82
2024/01/15 09:13:06;;;;;;;9.57;2.78;;;;;;;;;;6285217;22;20501;-82
2024/01/15 09:15:34;;;;;;;8.85;2.20;;;;;;;;;;6258178;22;20073;-82
2024/01/15 09:18:02;;;;;;;1.70;1.17;;;;;;;;;;6283232;22;20050;-82
2024/01/15 09:20:29;;;;;;;8.02;1.85;;;;;;;;;;6311567;22;20197;-82
2024/01/15 09:22:55;;;;;;;6.35;2.45;;;;;;;;;;6283915;22;20021;-82
2024/01/15 09:25:21;;;;;;;4.97;1.80;;;;;;;;;;6284858;22;20063;-82
2024/01/15 09:27:48;;;;;;;6.63;1.48;;;;;;;;;;6284588;22;20022;-82
2024/01/15 09:30:14;;;;;;;3.80;1.60;;;;;;;;;;6285065;22;20359;-82
2024/01/15 09:32:40;;;;;;;5.30;1.50;;;;;;;;;;6312224;22;20027;-82
2024/01/15 09:35:06;;;;;;;6.43;1.83;;;;;;;;;;6284767;22;20026;-82
2024/01/15 09:37:32;;;;;;;6.18;1.85;;;;;;;;;;6260529;22;20068;-83
2024/01/15 09:39:58;;;;;;;3.67;1.50;;;;;;;;;;6314517;22;20069;-84
2024/01/15 09:42:25;;;;;;;4.32;1.42;;;;;;;;;;6258648;22;20298;-82
2024/01/15 09:44:52;;;;;;;5.00;1.48;;;;;;;;;;6285121;22;20386;-83
2024/01/15 09:47:19;;;;;;;3.35;1.63;;;;;;;;;;6259753;22;20018;-82
2024/01/15 09:49:45;;;;;;;3.40;1.55;;;;;;;;;;6311918;22;20407;-83
2024/01/15 09:52:11;;;;;;;4.55;1.55;;;;;;;;;;6285580;22;20390;-82
2024/01/15 09:54:38;;;;;;;7.50;1.80;;;;;;;;;;6259871;22;20022;-83
2024/01/15 09:57:05;;;;;;;6.63;1.70;;;;;;;;;;6285005;22;20015;-82
2024/01/15 09:59:31;;;;;;;3.25;1.48;;;;;;;;;;6259349;22;20049;-82
2024/01/15 10:01:59;;;;;;;5.00;1.52;;;;;;;;;;6259117;22;20023;-82
2024/01/15 10:04:25;;;;;;;2.90;1.25;;;;;;;;;;6312965;22;20011;-83
2024/01/15 10:06:52;;;;;;;4.47;1.45;;;;;;;;;;6284303;22;20020;-83
2024/01/15 10:09:21;;;;;;;3.08;1.50;;;;;;;;;;6255774;22;20011;-83
2024/01/15 10:11:47;;;;;;;7.72;1.80;;;;;;;;;;6256296;22;20011;-82
2024/01/15 10:14:13;;;;;;;6.50;2.35;;;;;;;;;;6256990;22;20057;-84
2024/01/15 10:16:43;;;;;;;4.80;1.75;;;;;;;;;;6282410;22;20020;-82
2024/01/15 10:19:09;;;;;;;3.05;1.30;;;;;;;;;;6282751;22;20088;-82
2024/01/15 10:21:36;;;;;;;2.38;1.00;;;;;;;;;;6282473;22;20020;-82
2024/01/15 10:24:03;;;;;;;4.18;1.30;;;;;;;;;;6256571;22;20048;-82
2024/01/15 10:26:29;;;;;;;1.88;0.95;;;;;;;;;;6256914;22;20097;-82
2024/01/15 10:28:55;;;;;;;5.38;1.80;;;;;;;;;;6310543;22;20019;-80
2024/01/15 10:31:21;;;;;;;5.93;1.67;;;;;;;;;;6282908;22;20094;-80
2024/01/15 10:33:50;;;;;;;5.35;2.47;;;;;;;;;;6310468;22;20011;-81
2024/01/15 10:36:17;;;;;;;4.13;1.52;;;;;;;;;;6310053;22;20107;-81
2024/01/15 10:38:43;;;;;;;8.20;1.83;;;;;;;;;;6309534;22;20045;-81
2024/01/15 10:41:10;;;;;;;2.75;1.30;;;;;;;;;;6309444;22;20343;-80
2024/01/15 10:43:36;;;;;;;5.07;2.35;;;;;;;;;;6309754;22;20026;-80
2024/01/15 10:46:02;;;;;;;4.95;1.50;;;;;;;;;;6309271;22;20090;-80
2024/01/15 10:48:30;;;;;;;7.05;1.88;;;;;;;;;;6309684;22;20038;-80
2024/01/15 10:50:57;;;;;;;6.00;1.60;;;;;;;;;;6280898;22;20024;-81
2024/01/15 10:53:24;;;;;;;5.72;1.67;;;;;;;;;;6280908;22;20019;-81
2024/01/15 10:55:51;;;;;;;3.13;1.50;;;;;;;;;;6309179;22;20324;-80
2024/01/15 10:58:18;;;;;;;3.22;1.02;;;;;;;;;;6310140;22;20529;-81
2024/01/15 11:00:44;;;;;;;9.52;1.77;;;;;;;;;;6281998;22;20030;-81
2024/01/15 11:03:10;;;;;;;4.32;1.45;;;;;;;;;;6282418;22;20038;-81
2024/01/15 11:05:40;;;;;;;8.45;2.10;;;;;;;;;;6310239;22;20096;-81
2024/01/15 11:08:07;;;;;;;2.78;1.50;;;;;;;;;;6282305;22;20023;-81
2024/01/15 11:10:42;;;;;;;3.20;1.83;;;;;;;;;;6281757;22;20041;-80
2024/01/15 11:13:15;;;;;;;2.65;1.40;;;;;;;;;;6282269;22;20018;-81
2024/01/15 11:16:00;;;;;;;9.63;2.30;;;;;;;;;;6282169;22;20023;-81
2024/01/15 11:18:36;;;;;;;7.20;2.40;;;;;;;;;;6281378;22;20395;-81
2024/01/15 11:21:15;;;;;;;8.75;2.28;;;;;;;;;;6283016;22;20068;-81
2024/01/15 11:23:48;;;;;;;3.72;1.60;;;;;;;;;;6281573;22;20355;-81
2024/01/15 11:26:34;;;;;;;7.03;2.47;;;;;;;;;;6282713;22;20019;-85
2024/01/15 11:29:03;;;;;;;4.93;2.00;;;;;;;;;;6282484;22;20023;-82
2024/01/15 11:31:52;;;;;;;5.22;2.03;;;;;;;;;;6283112;22;20104;-82
2024/01/15 11:34:18;;;;;;;7.93;2.42;;;;;;;;;;6238684;22;20022;-82
2024/01/15 11:36:54;;;;;;;8.32;2.63;;;;;;;;;;6282585;22;20027;-82
2024/01/15 11:39:35;;;;;;;9.65;1.95;;;;;;;;;;6282383;22;20022;-82
2024/01/15 11:42:03;;;;;;;6.32;1.85;;;;;;;;;;6282616;22;20022;-82
2024/01/15 11:44:29;;;;;;;6.80;1.80;;;;;;;;;;6282874;22;20027;-82
2024/01/15 11:46:58;;;;;;;8.13;2.22;;;;;;;;;;6280528;22;20022;-81
2024/01/15 11:49:33;;;;;;;8.27;1.70;;;;;;;;;;6308608;22;20026;-81
2024/01/15 11:52:01;;;;;;;6.78;2.10;;;;;;;;;;6280392;22;20029;-81
2024/01/15 11:54:29;;;;;;;8.93;2.30;;;;;;;;;;6281651;22;20019;-83
2024/01/15 11:56:56;;;;;;;8.07;2.22;;;;;;;;;;6309076;22;20026;-81
2024/01/15 11:59:23;;;;;;;7.53;2.63;;;;;;;;;;6282274;22;20019;-81
2024/01/15 12:01:49;;;;;;;6.20;2.03;;;;;;;;;;6281799;22;20019;-81
2024/01/15 12:04:17;;;;;;;7.45;2.28;;;;;;;;;;6281820;22;20019;-81
2024/01/15 12:06:43;;;;;;;6.97;2.00;;;;;;;;;;6280388;22;20096;-81
2024/01/15 12:09:10;;;;;;;7.82;2.70;;;;;;;;;;6281016;22;20027;-81
2024/01/15 12:11:37;;;;;;;12.15;2.42;;;;;;;;;;6256470;22;20019;-81
2024/01/15 12:14:03;;;;;;;7.97;2.50;;;;;;;;;;6281095;22;20019;-81
2024/01/15 12:16:29;;;;;;;9.00;2.15;;;;;;;;;;6281229;22;20021;-81
2024/01/15 12:18:55;;;;;;;7.18;2.30;;;;;;;;;;6280870;22;20091;-81
2024/01/15 12:21:21;;;;;;;7.80;3.13;;;;;;;;;;6280257;22;20347;-81
2024/01/15 12:23:48;;;;;;;7.25;2.10;;;;;;;;;;6280175;22;20057;-81
2024/01/15 12:26:14;;;;;;;11.10;2.55;;;;;;;;;;6281479;22;20051;-81
2024/01/15 12:28:40;;;;;;;8.27;2.30;;;;;;;;;;6281040;22;20456;-81
2024/01/15 12:31:06;;;;;;;8.10;2.33;;;;;;;;;;6281545;22;20463;-81
2024/01/15 12:33:33;;;;;;;8.70;2.45;;;;;;;;;;6281317;22;20339;-81
2024/01/15 12:35:59;;;;;;;9.75;2.60;;;;;;;;;;6280941;22;20023;-81
2024/01/15 12:38:26;;;;;;;6.50;2.00;;;;;;;;;;6280889;22;20039;-81
2024/01/15 12:40:52;;;;;;;6.25;2.35;;;;;;;;;;6281312;22;20027;-81
2024/01/15 12:43:18;;;;;;;4.78;1.65;;;;;;;;;;6281417;22;20064;-81
2024/01/15 12:45:44;;;;;;;3.63;1.27;;;;;;;;;;6281658;22;20026;-81
2024/01/15 12:48:11;;;;;;;5.30;1.20;;;;;;;;;;6281274;22;20023;-81
2024/01/15 12:50:37;;;;;;;5.88;1.77;;;;;;;;;;6281707;22;20026;-81
2024/01/15 12:53:03;;;;;;;5.28;1.90;;;;;;;;;;6281344;22;20019;-81
2024/01/15 12:55:29;;;;;;;7.30;2.30;;;;;;;;;;6281536;22;20023;-81
2024/01/15 12:57:55;;;;;;;7.07;2.13;;;;;;;;;;6309103;22;20030;-81
2024/01/15 13:00:21;;;;;;;9.57;2.17;;;;;;;;;;6281185;22;20012;-81
2024/01/15 13:02:49;;;;;;;9.70;2.85;;;;;;;;;;6280879;22;20137;-81
2024/01/15 13:05:16;;;;;;;8.52;2.60;;;;;;;;;;6281217;22;20023;-81
2024/01/15 13:07:42;;;;;;;7.80;3.00;;;;;;;;;;6281281;22;20398;-81
2024/01/15 13:10:09;;;;;;;7.40;2.20;;;;;;;;;;6281367;22;20475;-81
2024/01/15 13:12:35;;;;;;;10.77;2.92;;;;;;;;;;6281093;22;20023;-81
2024/01/15 13:15:04;;;;;;;13.80;3.28;;;;;;;;;;6281105;22;20022;-81
2024/01/15 13:17:30;;;;;;;12.75;2.85;;;;;;;;;;6281495;22;20022;-81
2024/01/15 13:19:56;;;;;;;17.85;2.80;;;;;;;;;;6280728;22;20019;-81
2024/01/15 13:22:23;;;;;;;11.85;3.58;;;;;;;;;;6279429;22;20455;-81
2024/01/15 13:24:49;;;;;;;8.45;2.90;;;;;;;;;;6280186;22;20023;-81
2024/01/15 13:27:15;;;;;;;5.95;2.25;;;;;;;;;;6280281;22;20043;-81
2024/01/15 13:29:41;;;;;;;9.40;2.70;;;;;;;;;;6280455;22;20020;-81
2024/01/15 13:32:07;;;;;;;8.38;2.22;;;;;;;;;;6309353;22;20090;-81
2024/01/15 13:34:33;;;;;;;6.45;2.03;;;;;;;;;;6257356;22;20023;-81
2024/01/15 13:36:59;;;;;;;4.88;2.35;;;;;;;;;;6282521;22;20403;-81
2024/01/15 13:39:25;;;;;;;11.38;2.60;;;;;;;;;;6282810;22;20081;-81
2024/01/15 13:41:51;;;;;;;7.03;2.17;;;;;;;;;;6282918;22;20011;-81
2024/01/15 13:44:17;;;;;;;7.78;2.00;;;;;;;;;;6282853;22;20015;-82
2024/01/15 13:46:43;;;;;;;7.07;2.28;;;;;;;;;;6310468;22;20053;-81
2024/01/15 13:49:09;;;;;;;4.90;1.88;;;;;;;;;;6310720;22;20026;-81
2024/01/15 13:51:36;;;;;;;7.05;2.90;;;;;;;;;;6280994;22;20389;-82
2024/01/15 13:54:04;;;;;;;12.07;2.53;;;;;;;;;;6256294;22;20015;-82
2024/01/15 13:56:32;;;;;;;10.23;3.10;;;;;;;;;;6278044;22;20031;-82
2024/01/15 13:58:58;;;;;;;8.93;2.63;;;;;;;;;;6277666;22;20079;-82
2024/01/15 14:01:24;;;;;;;8.23;1.83;;;;;;;;;;6253191;22;20074;-82
2024/01/15 14:03:51;;;;;;;8.85;2.35;;;;;;;;;;6282115;22;20026;-81
2024/01/15 14:06:17;;;;;;;9.60;2.60;;;;;;;;;;6282222;22;20019;-81
2024/01/15 14:08:43;;;;;;;6.50;2.30;;;;;;;;;;6282094;22;20098;-81
2024/01/15 14:11:10;;;;;;;4.85;1.67;;;;;;;;;;6256663;22;20015;-81
2024/01/15 14:13:36;;;;;;;5.55;1.60;;;;;;;;;;6280285;22;20046;-81
2024/01/15 14:16:02;;;;;;;5.22;1.60;;;;;;;;;;6253962;22;20019;-81
2024/01/15 14:18:28;;;;;;;6.97;1.80;;;;;;;;;;6253181;22;20580;-81
2024/01/15 14:20:54;;;;;;;6.53;1.90;;;;;;;;;;6254571;22;20016;-81
2024/01/15 14:23:21;;;;;;;5.35;1.33;;;;;;;;;;6282073;22;20029;-81
2024/01/15 14:25:47;;;;;;;4.60;1.58;;;;;;;;;;6282081;22;20016;-80
2024/01/15 14:28:13;;;;;;;3.10;1.40;;;;;;;;;;6278059;22;20016;-81
2024/01/15 14:30:39;;;;;;;5.72;1.83;;;;;;;;;;6279019;22;20073;-83
2024/01/15 14:33:05;;;;;;;3.03;1.73;;;;;;;;;;6281422;22;20020;-81
2024/01/15 14:35:31;;;;;;;5.28;1.48;;;;;;;;;;6257502;22;20015;-81